Time;durP1;ratioP1;P1;durP2;ratioP2;P2;SDS_P1;SDS_P2;PMS_P1;PMS_P2;Temp;Humidity;BMP_temperature;BMP_pressure;BME280_temperature;BME280_humidity;BME280_pressure;Samples;Min_cycle;Max_cycle;Signal;HPM_P1;HPM_P2
2022/10/19 00:00:05;;;;;;;8.15;5.47;;;23.30;99.90;;;;;;6021945;29;89344;-65
2022/10/19 00:03:07;;;;;;;6.43;5.53;;;23.40;99.90;;;;;;6019969;29;90546;-65
2022/10/19 00:06:14;;;;;;;6.38;5.78;;;23.40;99.90;;;;;;6015453;29;89134;-65
2022/10/19 00:09:19;;;;;;;6.65;6.03;;;23.30;99.90;;;;;;6014575;29;89422;-65
2022/10/19 00:12:22;;;;;;;6.70;6.10;;;23.30;99.90;;;;;;6015228;29;89076;-65
2022/10/19 00:15:24;;;;;;;7.28;6.47;;;23.30;99.90;;;;;;6013864;29;89121;-65
2022/10/19 00:18:26;;;;;;;6.55;5.75;;;23.30;99.90;;;;;;6014048;29;88014;-65
2022/10/19 00:21:29;;;;;;;8.05;6.13;;;23.30;99.90;;;;;;6015754;29;89479;-65
2022/10/19 00:24:31;;;;;;;7.50;6.57;;;23.30;99.90;;;;;;6020305;29;88712;-65
2022/10/19 00:27:34;;;;;;;6.82;6.03;;;23.30;99.90;;;;;;6015385;29;89112;-65
2022/10/19 00:30:37;;;;;;;7.43;6.57;;;23.30;99.90;;;;;;6014228;29;88326;-65
2022/10/19 00:33:39;;;;;;;7.85;5.97;;;23.30;99.90;;;;;;6015017;29;90020;-65
2022/10/19 00:36:42;;;;;;;7.20;6.50;;;23.30;99.90;;;;;;6008873;29;89141;-65
2022/10/19 00:39:44;;;;;;;7.85;6.43;;;23.30;99.90;;;;;;6013727;29;89262;-65
2022/10/19 00:42:47;;;;;;;8.05;7.15;;;23.30;99.90;;;;;;6012704;29;89070;-65
2022/10/19 00:45:49;;;;;;;8.02;6.35;;;23.30;99.90;;;;;;6015428;29;89014;-65
2022/10/19 00:48:54;;;;;;;7.18;6.47;;;23.30;99.90;;;;;;6014875;29;89554;-65
2022/10/19 00:52:02;;;;;;;7.47;6.68;;;23.30;99.90;;;;;;6021777;28;89114;-65
2022/10/19 00:55:04;;;;;;;8.02;7.22;;;23.30;99.90;;;;;;6026421;29;88374;-65
2022/10/19 00:58:08;;;;;;;8.05;6.88;;;23.20;99.90;;;;;;6012809;29;87204;-65
2022/10/19 01:01:14;;;;;;;7.57;6.47;;;23.30;99.90;;;;;;6026376;29;89510;-65
2022/10/19 01:04:18;;;;;;;7.50;6.70;;;23.20;99.90;;;;;;6014037;29;90222;-65
2022/10/19 01:07:20;;;;;;;7.32;6.57;;;23.30;99.90;;;;;;6015798;29;89311;-65
2022/10/19 01:10:30;;;;;;;7.90;7.10;;;23.30;99.90;;;;;;6005249;29;89134;-65
2022/10/19 01:13:42;;;;;;;7.88;7.07;;;23.20;99.90;;;;;;6012922;29;89211;-65
2022/10/19 01:16:52;;;;;;;7.53;6.82;;;23.30;99.90;;;;;;6014765;29;89151;-65
2022/10/19 01:20:29;;;;;;;7.55;6.85;;;23.20;99.90;;;;;;6013842;29;88995;-65
2022/10/19 01:23:55;;;;;;;7.55;6.78;;;23.30;99.90;;;;;;6014572;29;88279;-65
2022/10/19 01:27:24;;;;;;;8.13;6.97;;;23.30;99.90;;;;;;6013669;29;88326;-65
2022/10/19 01:30:39;;;;;;;8.23;7.15;;;23.20;99.90;;;;;;6024255;29;90630;-65
2022/10/19 01:33:48;;;;;;;7.38;6.68;;;23.20;99.90;;;;;;6025972;29;89125;-65
2022/10/19 01:37:00;;;;;;;7.30;6.65;;;23.20;99.90;;;;;;6013008;29;90195;-65
2022/10/19 01:40:07;;;;;;;7.28;6.57;;;23.20;99.90;;;;;;6006464;29;89116;-65
2022/10/19 01:43:13;;;;;;;8.02;7.20;;;23.20;99.90;;;;;;6005843;29;89007;-65
2022/10/19 01:46:21;;;;;;;8.00;7.20;;;23.20;99.90;;;;;;6023831;29;89081;-65
2022/10/19 01:49:29;;;;;;;7.15;6.45;;;23.20;99.90;;;;;;6013197;29;89179;-65
2022/10/19 01:52:32;;;;;;;7.80;7.00;;;23.20;99.90;;;;;;6013253;29;89102;-65
2022/10/19 01:55:35;;;;;;;8.23;7.30;;;23.20;99.90;;;;;;6010181;29;89420;-65
2022/10/19 01:58:39;;;;;;;8.10;7.30;;;23.20;99.90;;;;;;6017706;28;88584;-65
2022/10/19 02:01:46;;;;;;;7.57;6.80;;;23.20;99.90;;;;;;6027993;29;89139;-65
2022/10/19 02:04:50;;;;;;;7.70;6.97;;;23.10;99.90;;;;;;6014168;29;88945;-64
2022/10/19 02:07:58;;;;;;;7.82;7.10;;;23.10;99.90;;;;;;6022690;29;90078;-65
2022/10/19 02:11:01;;;;;;;8.07;7.28;;;23.10;99.90;;;;;;6028054;28;89132;-65
2022/10/19 02:14:09;;;;;;;8.43;7.35;;;23.20;99.90;;;;;;6013051;29;89197;-65
2022/10/19 02:17:15;;;;;;;7.63;6.93;;;23.10;99.90;;;;;;6021613;29;89263;-65
2022/10/19 02:20:17;;;;;;;7.53;6.80;;;23.20;99.90;;;;;;6010871;29;90745;-65
2022/10/19 02:23:22;;;;;;;8.00;7.20;;;23.10;99.90;;;;;;6013758;29;89115;-65
2022/10/19 02:26:24;;;;;;;7.88;7.10;;;23.10;99.90;;;;;;6022342;29;89424;-66
2022/10/19 02:29:26;;;;;;;9.25;7.22;;;23.20;99.90;;;;;;6004688;29;87225;-65
2022/10/19 02:32:30;;;;;;;7.47;6.78;;;23.10;99.90;;;;;;6014440;29;88676;-65
2022/10/19 02:35:32;;;;;;;7.78;7.07;;;23.10;99.90;;;;;;6012557;29;89079;-65
2022/10/19 02:38:35;;;;;;;8.20;7.40;;;23.10;99.90;;;;;;6022880;29;90077;-65
2022/10/19 02:41:42;;;;;;;7.60;6.80;;;23.10;99.90;;;;;;6025070;29;89300;-65
2022/10/19 02:44:51;;;;;;;7.38;6.68;;;23.20;99.90;;;;;;6012998;29;87891;-65
2022/10/19 02:47:57;;;;;;;7.53;6.82;;;23.10;99.90;;;;;;6012198;29;89151;-65
2022/10/19 02:50:59;;;;;;;7.68;6.97;;;23.10;99.90;;;;;;6010290;29;89138;-65
2022/10/19 02:54:02;;;;;;;8.07;7.07;;;23.10;99.90;;;;;;6012463;29;89188;-65
2022/10/19 02:57:09;;;;;;;7.40;6.70;;;23.10;99.90;;;;;;6037035;29;89164;-65
2022/10/19 03:00:12;;;;;;;7.22;6.53;;;23.10;99.90;;;;;;6027742;28;88462;-65
2022/10/19 03:03:16;;;;;;;7.78;6.78;;;23.10;99.90;;;;;;6023038;29;88963;-65
2022/10/19 03:06:18;;;;;;;7.15;6.50;;;23.10;99.90;;;;;;6017850;29;89211;-66
2022/10/19 03:09:20;;;;;;;7.60;6.90;;;23.10;99.90;;;;;;6015482;29;90481;-65
2022/10/19 03:12:22;;;;;;;7.38;6.68;;;23.10;99.90;;;;;;6026795;29;89128;-65
2022/10/19 03:15:27;;;;;;;7.43;6.72;;;23.10;99.90;;;;;;6023239;28;89488;-65
2022/10/19 03:18:31;;;;;;;7.25;6.55;;;23.10;99.90;;;;;;6017011;29;89143;-65
2022/10/19 03:21:34;;;;;;;7.65;6.85;;;23.10;99.90;;;;;;6015300;29;89009;-65
2022/10/19 03:24:36;;;;;;;8.05;7.25;;;23.10;99.90;;;;;;6015387;29;89503;-64
2022/10/19 03:27:38;;;;;;;7.65;6.95;;;23.10;99.90;;;;;;6016043;29;89217;-65
2022/10/19 03:30:40;;;;;;;7.20;6.50;;;23.10;99.90;;;;;;6021363;29;88450;-65
2022/10/19 03:33:43;;;;;;;7.85;7.05;;;23.10;99.90;;;;;;6016138;29;89131;-65
2022/10/19 03:36:45;;;;;;;7.40;6.70;;;23.10;99.90;;;;;;6020052;29;89082;-65
2022/10/19 03:39:47;;;;;;;7.10;6.40;;;23.10;99.90;;;;;;6019575;28;90420;-65
2022/10/19 03:42:49;;;;;;;7.50;6.78;;;23.10;99.90;;;;;;6014169;29;89298;-65
2022/10/19 03:45:51;;;;;;;7.78;6.97;;;23.10;99.90;;;;;;6014468;29;89457;-65
2022/10/19 03:48:55;;;;;;;7.43;6.72;;;23.10;99.90;;;;;;6014336;29;89490;-65
2022/10/19 03:51:57;;;;;;;7.13;6.43;;;23.10;99.90;;;;;;6012991;29;89098;-65
2022/10/19 03:54:59;;;;;;;7.20;6.50;;;23.10;99.90;;;;;;6013336;29;89191;-65
2022/10/19 03:58:01;;;;;;;7.57;6.78;;;23.10;99.90;;;;;;6014278;29;89090;-65
2022/10/19 04:01:08;;;;;;;6.97;6.28;;;23.10;99.90;;;;;;6027882;28;88454;-65
2022/10/19 04:04:13;;;;;;;7.50;6.80;;;23.10;99.90;;;;;;6025070;29;89064;-65
2022/10/19 04:07:15;;;;;;;7.22;6.53;;;23.20;99.90;;;;;;6014608;29;89391;-65
2022/10/19 04:10:17;;;;;;;7.63;6.82;;;23.10;99.90;;;;;;6012261;29;90055;-65
2022/10/19 04:13:19;;;;;;;8.70;7.30;;;23.10;99.90;;;;;;6008459;29;89193;-65
2022/10/19 04:16:23;;;;;;;7.47;6.78;;;23.10;99.90;;;;;;6012046;29;89151;-65
2022/10/19 04:19:26;;;;;;;8.75;6.13;;;23.10;99.90;;;;;;6013711;29;89208;-65
2022/10/19 04:22:28;;;;;;;7.65;6.88;;;23.10;99.90;;;;;;6014424;29;89068;-65
2022/10/19 04:25:30;;;;;;;7.18;6.47;;;23.20;99.90;;;;;;6013428;29;89465;-66
2022/10/19 04:28:33;;;;;;;7.20;6.50;;;23.10;99.90;;;;;;6014367;29;89178;-65
2022/10/19 04:31:35;;;;;;;7.40;6.70;;;23.20;99.90;;;;;;6014866;29;87251;-65
2022/10/19 04:34:38;;;;;;;7.47;6.78;;;23.20;99.90;;;;;;6012361;29;89266;-65
2022/10/19 04:37:40;;;;;;;7.93;7.03;;;23.10;99.90;;;;;;6023306;29;89227;-65
2022/10/19 04:40:42;;;;;;;6.82;6.13;;;23.20;99.90;;;;;;6018387;29;178712;-65
2022/10/19 04:43:45;;;;;;;7.43;6.72;;;23.20;99.90;;;;;;6014706;29;88284;-65
2022/10/19 04:46:47;;;;;;;7.97;7.18;;;23.20;99.90;;;;;;6004939;29;89481;-64
2022/10/19 04:49:50;;;;;;;7.53;6.72;;;23.20;99.90;;;;;;6013543;29;89375;-66
2022/10/19 04:52:53;;;;;;;8.80;7.55;;;23.20;99.90;;;;;;6015523;29;89120;-65
2022/10/19 04:55:55;;;;;;;7.82;7.03;;;23.20;99.90;;;;;;6014638;29;89115;-66
2022/10/19 04:58:58;;;;;;;7.75;6.95;;;23.20;99.90;;;;;;6019273;28;89137;-66
2022/10/19 05:02:00;;;;;;;8.30;7.50;;;23.20;99.90;;;;;;6015232;29;88398;-65
2022/10/19 05:05:04;;;;;;;7.97;7.18;;;23.20;99.90;;;;;;6018115;29;89342;-65
2022/10/19 05:08:06;;;;;;;7.15;6.45;;;23.20;99.90;;;;;;6018024;28;89603;-66
2022/10/19 05:11:13;;;;;;;8.05;7.22;;;23.20;99.90;;;;;;6014286;29;90166;-65
2022/10/19 05:14:14;;;;;;;7.53;6.82;;;23.20;99.90;;;;;;6015371;29;89043;-65
2022/10/19 05:17:16;;;;;;;7.55;6.85;;;23.30;99.90;;;;;;6013892;29;89120;-65
2022/10/19 05:20:20;;;;;;;7.95;7.15;;;23.30;99.90;;;;;;6015053;28;89344;-66
2022/10/19 05:23:22;;;;;;;7.97;7.18;;;23.30;99.90;;;;;;6015236;29;89497;-65
2022/10/19 05:26:26;;;;;;;8.07;7.28;;;23.30;99.90;;;;;;6020922;28;89249;-65
2022/10/19 05:29:29;;;;;;;9.20;8.07;;;23.30;99.90;;;;;;6014017;29;88021;-65
2022/10/19 05:32:31;;;;;;;8.73;7.90;;;23.30;99.90;;;;;;6004243;29;88535;-66
2022/10/19 05:35:34;;;;;;;7.85;7.03;;;23.30;99.90;;;;;;6013813;29;89126;-65
2022/10/19 05:38:36;;;;;;;7.93;7.13;;;23.30;99.90;;;;;;6023843;29;89108;-65
2022/10/19 05:41:38;;;;;;;8.35;7.55;;;23.30;99.90;;;;;;6012823;29;90251;-65
2022/10/19 05:44:40;;;;;;;7.47;6.78;;;23.30;99.90;;;;;;6013418;29;89265;-65
2022/10/19 05:47:42;;;;;;;8.75;7.40;;;23.30;99.90;;;;;;6013470;29;89106;-66
2022/10/19 05:50:54;;;;;;;9.73;7.78;;;23.30;99.90;;;;;;6013021;29;89034;-66
2022/10/19 05:53:56;;;;;;;9.52;7.28;;;23.30;99.90;;;;;;6013864;29;87826;-65
2022/10/19 05:56:58;;;;;;;8.02;7.32;;;23.30;99.90;;;;;;6014071;29;89592;-65
2022/10/19 06:00:00;;;;;;;8.07;7.00;;;23.30;99.90;;;;;;6025630;29;89135;-66
2022/10/19 06:03:02;;;;;;;9.20;7.60;;;23.30;99.90;;;;;;6019114;28;88346;-65
2022/10/19 06:06:08;;;;;;;8.35;7.15;;;23.30;99.90;;;;;;6012056;29;89196;-65
2022/10/19 06:09:10;;;;;;;8.75;7.53;;;23.30;99.90;;;;;;6013243;29;89177;-65
2022/10/19 06:12:12;;;;;;;9.90;7.47;;;23.30;99.90;;;;;;6012840;29;90372;-66
2022/10/19 06:15:15;;;;;;;8.00;7.20;;;23.30;99.90;;;;;;6004035;29;89225;-65
2022/10/19 06:18:17;;;;;;;8.40;7.10;;;23.30;99.90;;;;;;6012724;29;89406;-65
2022/10/19 06:21:21;;;;;;;9.00;7.50;;;23.30;99.90;;;;;;6013239;29;89184;-65
2022/10/19 06:24:23;;;;;;;8.60;7.32;;;23.30;99.90;;;;;;6014112;29;89276;-65
2022/10/19 06:27:25;;;;;;;8.25;7.45;;;23.30;99.90;;;;;;6014551;29;89222;-65
2022/10/19 06:30:28;;;;;;;8.65;7.70;;;23.40;99.90;;;;;;6017333;29;88356;-65
2022/10/19 06:33:30;;;;;;;11.25;7.55;;;23.30;99.90;;;;;;6016814;29;88306;-65
2022/10/19 06:36:33;;;;;;;9.20;7.40;;;23.30;99.90;;;;;;6018922;29;89136;-65
2022/10/19 06:39:35;;;;;;;8.57;7.20;;;23.30;99.90;;;;;;6022604;28;89201;-65
2022/10/19 06:42:38;;;;;;;8.70;7.40;;;23.30;99.90;;;;;;6026249;29;90029;-66
2022/10/19 06:45:41;;;;;;;8.32;7.45;;;23.30;99.90;;;;;;6021636;29;90260;-65
2022/10/19 06:48:43;;;;;;;7.97;7.18;;;23.30;99.90;;;;;;6021168;29;89081;-65
2022/10/19 06:51:46;;;;;;;8.57;7.40;;;23.30;99.90;;;;;;6017538;29;89244;-66
2022/10/19 06:54:48;;;;;;;8.68;7.28;;;23.40;99.90;;;;;;6016759;29;88264;-65
2022/10/19 06:57:50;;;;;;;8.43;7.50;;;23.30;99.90;;;;;;6015750;29;89565;-65
2022/10/19 07:00:57;;;;;;;8.43;7.40;;;23.30;99.90;;;;;;6029900;29;89114;-65
2022/10/19 07:03:59;;;;;;;8.70;7.35;;;23.40;99.90;;;;;;6017624;29;88783;-66
2022/10/19 07:07:02;;;;;;;7.88;7.07;;;23.30;99.90;;;;;;6016137;29;89150;-66
2022/10/19 07:10:05;;;;;;;9.05;7.55;;;23.30;99.90;;;;;;6016513;29;89025;-65
2022/10/19 07:13:07;;;;;;;7.90;7.10;;;23.30;99.90;;;;;;6016399;29;90528;-65
2022/10/19 07:16:12;;;;;;;8.80;7.05;;;23.30;99.90;;;;;;6014469;29;88013;-65
2022/10/19 07:19:14;;;;;;;9.45;7.78;;;23.30;99.90;;;;;;6016892;29;89651;-66
2022/10/19 07:22:17;;;;;;;8.07;7.00;;;23.30;99.90;;;;;;6015704;29;89223;-65
2022/10/19 07:25:19;;;;;;;7.82;7.05;;;23.30;99.90;;;;;;6016644;29;88979;-66
2022/10/19 07:28:21;;;;;;;9.18;7.60;;;23.30;99.90;;;;;;6016805;29;89036;-65
2022/10/19 07:31:25;;;;;;;8.00;7.20;;;23.30;99.90;;;;;;6014965;29;89525;-65
2022/10/19 07:34:27;;;;;;;8.55;7.35;;;23.30;99.90;;;;;;6017063;29;88297;-66
2022/10/19 07:37:30;;;;;;;8.10;7.40;;;23.30;99.90;;;;;;6016837;29;89681;-65
2022/10/19 07:40:32;;;;;;;8.38;7.20;;;23.30;99.90;;;;;;6016069;29;89131;-65
2022/10/19 07:43:35;;;;;;;7.75;6.88;;;23.30;99.90;;;;;;6015194;29;90021;-65
2022/10/19 07:46:37;;;;;;;7.85;7.15;;;23.30;99.90;;;;;;6015237;29;89057;-65
2022/10/19 07:49:40;;;;;;;7.95;7.15;;;23.30;99.90;;;;;;6016390;29;89109;-65
2022/10/19 07:52:43;;;;;;;7.88;7.07;;;23.30;99.90;;;;;;6015815;29;89096;-65
2022/10/19 07:55:46;;;;;;;8.98;7.60;;;23.30;99.90;;;;;;6015316;29;89041;-65
2022/10/19 07:58:49;;;;;;;8.77;7.35;;;23.30;99.90;;;;;;6023884;29;89155;-66
2022/10/19 08:01:53;;;;;;;8.38;7.55;;;23.40;99.90;;;;;;6015539;29;89120;-65
2022/10/19 08:04:55;;;;;;;7.60;6.90;;;23.30;99.90;;;;;;6016023;29;88513;-65
2022/10/19 08:07:58;;;;;;;7.78;7.00;;;23.30;99.90;;;;;;6016623;29;90082;-65
2022/10/19 08:11:07;;;;;;;8.23;7.35;;;23.40;99.90;;;;;;6015043;29;88997;-65
2022/10/19 08:14:09;;;;;;;7.53;6.68;;;23.40;99.90;;;;;;6013832;29;89533;-65
2022/10/19 08:17:15;;;;;;;7.70;7.00;;;23.30;99.90;;;;;;6014268;29;89072;-65
2022/10/19 08:20:17;;;;;;;7.68;6.88;;;23.30;99.90;;;;;;6014757;29;88846;-66
2022/10/19 08:23:21;;;;;;;8.80;7.00;;;23.30;99.90;;;;;;6015355;29;89119;-65
2022/10/19 08:26:23;;;;;;;8.43;7.28;;;23.40;99.90;;;;;;6015686;29;89033;-66
2022/10/19 08:29:25;;;;;;;7.60;6.85;;;23.30;99.90;;;;;;6015253;29;89449;-65
2022/10/19 08:32:27;;;;;;;7.82;7.13;;;23.30;99.90;;;;;;6016311;29;89102;-66
2022/10/19 08:35:30;;;;;;;7.40;6.70;;;23.30;99.90;;;;;;6016473;29;87900;-65
2022/10/19 08:38:35;;;;;;;7.50;6.80;;;23.30;99.90;;;;;;6025221;29;89385;-65
2022/10/19 08:41:52;;;;;;;7.57;6.88;;;23.30;99.90;;;;;;6013973;29;89158;-65
2022/10/19 08:45:18;;;;;;;7.57;6.88;;;23.30;99.90;;;;;;6014550;29;88956;-65
2022/10/19 08:48:27;;;;;;;7.35;6.75;;;23.30;99.90;;;;;;6012699;29;89075;-65
2022/10/19 08:51:34;;;;;;;7.20;6.50;;;23.30;99.90;;;;;;6024862;29;89211;-65
2022/10/19 08:54:43;;;;;;;7.30;6.60;;;23.30;99.90;;;;;;6015039;29;89185;-65
2022/10/19 08:57:55;;;;;;;7.28;6.55;;;23.30;99.90;;;;;;6014317;29;88309;-65
2022/10/19 09:01:05;;;;;;;7.30;6.70;;;23.30;99.90;;;;;;6009003;29;89126;-65
2022/10/19 09:04:15;;;;;;;7.65;6.90;;;23.30;99.90;;;;;;6014228;29;89191;-65
2022/10/19 09:07:24;;;;;;;7.30;6.60;;;23.40;99.90;;;;;;6015477;29;88345;-65
2022/10/19 09:10:32;;;;;;;7.20;6.45;;;23.30;99.90;;;;;;6015199;29;88756;-65
2022/10/19 09:13:39;;;;;;;7.22;6.60;;;23.30;99.90;;;;;;6014931;29;88977;-65
2022/10/19 09:16:42;;;;;;;7.32;6.60;;;23.30;99.90;;;;;;6012990;29;90164;-65
2022/10/19 09:19:44;;;;;;;7.57;6.72;;;23.30;99.90;;;;;;6014610;29;89096;-66
2022/10/19 09:22:50;;;;;;;7.18;6.47;;;23.40;99.90;;;;;;6014371;29;89067;-65
2022/10/19 09:25:55;;;;;;;6.90;6.30;;;23.40;99.90;;;;;;6015801;29;87821;-65
2022/10/19 09:29:03;;;;;;;6.72;6.13;;;23.40;99.90;;;;;;6012295;29;89113;-65
2022/10/19 09:32:12;;;;;;;6.63;6.03;;;23.30;99.90;;;;;;6014638;29;89127;-66
2022/10/19 09:35:25;;;;;;;7.13;6.40;;;23.30;99.90;;;;;;6012752;29;89065;-65
2022/10/19 09:38:28;;;;;;;6.90;6.30;;;23.40;99.90;;;;;;6023130;29;88323;-65
2022/10/19 09:41:32;;;;;;;7.03;6.43;;;23.40;99.90;;;;;;6013829;29;88941;-65
2022/10/19 09:44:34;;;;;;;6.55;5.95;;;23.40;99.90;;;;;;6013809;29;88967;-65
2022/10/19 09:47:38;;;;;;;6.70;6.07;;;23.30;99.90;;;;;;6013588;29;90040;-65
2022/10/19 09:50:44;;;;;;;6.93;6.25;;;23.40;99.90;;;;;;6021890;29;89171;-65
2022/10/19 09:53:47;;;;;;;7.00;6.30;;;23.30;99.90;;;;;;6014856;29;89036;-66
2022/10/19 09:56:56;;;;;;;7.20;6.50;;;23.30;99.90;;;;;;6012963;29;89050;-65
2022/10/19 09:59:58;;;;;;;6.78;6.15;;;23.40;99.90;;;;;;6016662;29;89320;-65
2022/10/19 10:03:00;;;;;;;7.40;6.70;;;23.40;99.90;;;;;;6016432;29;89198;-66
2022/10/19 10:06:06;;;;;;;6.75;6.15;;;23.40;99.90;;;;;;6018376;29;87967;-65
2022/10/19 10:09:15;;;;;;;6.95;6.32;;;23.40;99.90;;;;;;6018106;29;88379;-65
2022/10/19 10:12:18;;;;;;;6.60;6.00;;;23.30;99.90;;;;;;6016744;29;89120;-65
2022/10/19 10:15:24;;;;;;;7.20;6.50;;;23.40;99.90;;;;;;6017106;29;89421;-65
2022/10/19 10:18:28;;;;;;;6.63;6.03;;;23.30;99.90;;;;;;6016088;29;89943;-66
2022/10/19 10:21:33;;;;;;;6.47;5.88;;;23.40;99.90;;;;;;6017491;29;89080;-66
2022/10/19 10:24:35;;;;;;;6.75;6.15;;;23.40;99.90;;;;;;6017731;29;89114;-65
2022/10/19 10:27:39;;;;;;;6.57;5.97;;;23.30;99.90;;;;;;6018173;29;89095;-65
2022/10/19 10:30:44;;;;;;;6.55;5.95;;;23.40;99.90;;;;;;6018112;29;88984;-66
2022/10/19 10:33:54;;;;;;;6.55;5.95;;;23.30;99.90;;;;;;6018217;29;88319;-65
2022/10/19 10:36:57;;;;;;;6.70;6.10;;;23.40;99.90;;;;;;6022666;29;89026;-65
2022/10/19 10:40:00;;;;;;;6.70;6.10;;;23.40;99.90;;;;;;6019763;29;88382;-65
2022/10/19 10:43:08;;;;;;;6.55;5.95;;;23.40;99.90;;;;;;6017224;29;89071;-65
2022/10/19 10:46:19;;;;;;;6.63;6.03;;;23.40;99.90;;;;;;6017606;29;89601;-65
2022/10/19 10:49:24;;;;;;;6.60;6.00;;;23.40;99.90;;;;;;6017847;29;89975;-65
2022/10/19 10:52:29;;;;;;;7.05;6.40;;;23.40;99.90;;;;;;6025932;29;88948;-65
2022/10/19 10:55:32;;;;;;;7.00;6.38;;;23.40;99.90;;;;;;6017207;29;89161;-65
2022/10/19 10:58:46;;;;;;;6.53;5.93;;;23.40;99.90;;;;;;6023485;29;89388;-66
2022/10/19 11:02:00;;;;;;;6.65;6.05;;;23.40;99.90;;;;;;6007270;29;89158;-65
2022/10/19 11:05:06;;;;;;;6.68;6.07;;;23.40;99.90;;;;;;6017852;29;89286;-65
2022/10/19 11:08:18;;;;;;;6.35;5.80;;;23.40;99.90;;;;;;6014852;29;89230;-65
2022/10/19 11:11:24;;;;;;;6.72;6.13;;;23.40;99.90;;;;;;6015703;29;88420;-65
2022/10/19 11:14:32;;;;;;;6.38;5.78;;;23.40;99.90;;;;;;6015398;29;87879;-65
2022/10/19 11:17:37;;;;;;;6.05;5.55;;;23.40;99.90;;;;;;6016348;29;89027;-65
2022/10/19 11:20:46;;;;;;;6.53;5.93;;;23.40;99.90;;;;;;6015988;29;89990;-66
2022/10/19 11:24:01;;;;;;;6.00;5.50;;;23.40;99.90;;;;;;6016403;29;89149;-65
2022/10/19 11:27:14;;;;;;;6.60;5.90;;;23.40;99.90;;;;;;6015456;29;89129;-65
2022/10/19 11:30:19;;;;;;;6.75;6.15;;;23.40;99.90;;;;;;6017448;29;89433;-65
2022/10/19 11:33:38;;;;;;;6.25;5.65;;;23.40;99.90;;;;;;6016404;29;89054;-65
2022/10/19 11:36:48;;;;;;;6.53;5.93;;;23.40;99.90;;;;;;6020639;29;89047;-65
2022/10/19 11:40:03;;;;;;;6.22;5.72;;;23.40;99.90;;;;;;6021228;29;88052;-66
2022/10/19 11:43:12;;;;;;;6.32;5.72;;;23.40;99.90;;;;;;6016247;29;88435;-68
2022/10/19 11:46:24;;;;;;;6.78;6.18;;;23.40;99.90;;;;;;6014934;29;89097;-68
2022/10/19 11:49:38;;;;;;;6.00;5.50;;;23.40;99.90;;;;;;6019228;29;88321;-68
2022/10/19 11:52:47;;;;;;;6.35;5.75;;;23.40;99.90;;;;;;6022081;29;88877;-68
2022/10/19 11:56:00;;;;;;;6.00;5.50;;;23.40;99.90;;;;;;6016130;29;89107;-68
2022/10/19 11:59:12;;;;;;;6.53;5.70;;;23.50;99.90;;;;;;6021704;28;89124;-68
2022/10/19 12:02:42;;;;;;;6.38;5.78;;;23.40;99.90;;;;;;6016622;29;87921;-68
2022/10/19 12:05:59;;;;;;;6.72;6.10;;;23.40;99.90;;;;;;6009979;29;89003;-68
2022/10/19 12:09:28;;;;;;;6.70;6.10;;;23.40;99.90;;;;;;6016413;29;89253;-68
2022/10/19 12:12:33;;;;;;;6.80;6.20;;;23.40;99.90;;;;;;6014296;29;89090;-68
2022/10/19 12:15:39;;;;;;;6.88;6.22;;;23.40;99.90;;;;;;6015626;29;88338;-68
2022/10/19 12:18:47;;;;;;;6.60;5.95;;;23.40;99.90;;;;;;6016545;29;89050;-68
2022/10/19 12:21:53;;;;;;;6.70;6.10;;;23.40;99.90;;;;;;6015609;29;89208;-68
2022/10/19 12:24:58;;;;;;;6.95;6.35;;;23.50;99.90;;;;;;6013904;29;90076;-68
2022/10/19 12:28:00;;;;;;;7.13;6.50;;;23.40;99.90;;;;;;6015692;29;89056;-68
2022/10/19 12:31:04;;;;;;;7.00;6.40;;;23.40;99.90;;;;;;6016195;29;89182;-68
2022/10/19 12:34:20;;;;;;;6.75;6.15;;;23.40;99.90;;;;;;6015519;29;89134;-68
2022/10/19 12:37:27;;;;;;;7.50;6.90;;;23.50;99.90;;;;;;6025262;29;89230;-68
2022/10/19 12:40:36;;;;;;;6.68;6.07;;;23.40;99.90;;;;;;6012877;29;88343;-68
2022/10/19 12:43:44;;;;;;;7.38;6.78;;;23.40;99.90;;;;;;6015210;29;89464;-67
2022/10/19 12:46:49;;;;;;;7.15;6.55;;;23.40;99.90;;;;;;6004307;29;88446;-68
2022/10/19 12:49:54;;;;;;;7.30;6.70;;;23.40;99.90;;;;;;6009601;29;89270;-68
2022/10/19 12:52:56;;;;;;;7.10;6.50;;;23.50;99.90;;;;;;6019757;29;89263;-68
2022/10/19 12:56:01;;;;;;;7.20;6.60;;;23.40;99.90;;;;;;6014249;29;90401;-68
2022/10/19 12:59:03;;;;;;;7.22;6.63;;;23.40;99.90;;;;;;6019292;29;88954;-68
2022/10/19 13:02:24;;;;;;;7.95;7.25;;;23.40;99.90;;;;;;6015589;29;89055;-68
2022/10/19 13:05:30;;;;;;;7.85;7.15;;;23.50;99.90;;;;;;6014147;29;89315;-68
2022/10/19 13:08:37;;;;;;;8.07;7.32;;;23.40;99.90;;;;;;6014523;29;89125;-68
2022/10/19 13:12:26;;;;;;;7.75;7.05;;;23.40;99.90;;;;;;6015106;29;89180;-68
2022/10/19 13:15:57;;;;;;;7.82;7.13;;;23.40;99.90;;;;;;6008272;29;89066;-68
2022/10/19 13:19:04;;;;;;;7.57;6.88;;;23.50;99.90;;;;;;6015042;29;88386;-68
2022/10/19 13:22:25;;;;;;;8.18;7.47;;;23.40;99.90;;;;;;6014169;29;89116;-68
2022/10/19 13:25:29;;;;;;;7.43;6.80;;;23.50;99.90;;;;;;6013983;29;89476;-68
2022/10/19 13:28:38;;;;;;;7.78;7.15;;;23.40;99.90;;;;;;6013837;29;90141;-67
2022/10/19 13:31:41;;;;;;;8.05;7.35;;;23.50;99.90;;;;;;6014590;29;89365;-68
2022/10/19 13:34:43;;;;;;;8.25;7.55;;;23.50;99.90;;;;;;6013775;29;89051;-68
2022/10/19 13:37:45;;;;;;;8.32;7.53;;;23.40;99.90;;;;;;6024449;29;89349;-68
2022/10/19 13:41:05;;;;;;;8.45;7.70;;;23.50;99.90;;;;;;6015430;29;88079;-67
2022/10/19 13:44:20;;;;;;;8.45;7.60;;;23.40;99.90;;;;;;6003707;29;89062;-68
2022/10/19 13:47:46;;;;;;;8.05;7.32;;;23.40;99.90;;;;;;6012928;29;89023;-68
2022/10/19 13:50:53;;;;;;;8.77;7.97;;;23.50;99.90;;;;;;6023719;29;88369;-68
2022/10/19 13:54:07;;;;;;;8.35;7.65;;;23.50;99.90;;;;;;6013851;29;88194;-65
2022/10/19 13:57:24;;;;;;;8.23;7.53;;;23.50;99.90;;;;;;6014314;29;89199;-65
2022/10/19 14:00:28;;;;;;;8.05;7.35;;;23.50;99.90;;;;;;6016923;29;90012;-66
2022/10/19 14:03:57;;;;;;;8.18;7.47;;;23.50;99.90;;;;;;6014342;29;89045;-65
2022/10/19 14:07:05;;;;;;;7.85;7.15;;;23.50;99.90;;;;;;6013741;29;89093;-66
2022/10/19 14:10:13;;;;;;;8.00;7.30;;;23.50;99.90;;;;;;6013846;29;87994;-66
2022/10/19 14:13:15;;;;;;;7.85;7.15;;;23.50;99.90;;;;;;6013814;29;89178;-66
2022/10/19 14:16:20;;;;;;;8.15;7.45;;;23.50;99.90;;;;;;6013988;29;89103;-66
2022/10/19 14:19:26;;;;;;;8.10;7.40;;;23.50;99.90;;;;;;6013057;29;89151;-66
2022/10/19 14:22:32;;;;;;;7.75;7.13;;;23.50;99.90;;;;;;6013705;29;87247;-66
2022/10/19 14:25:34;;;;;;;7.60;7.00;;;23.50;99.90;;;;;;6012715;29;88881;-66
2022/10/19 14:28:37;;;;;;;7.90;7.25;;;23.50;99.90;;;;;;6011931;29;89119;-66
2022/10/19 14:31:39;;;;;;;8.30;7.60;;;23.50;99.90;;;;;;6013302;29;90595;-66
2022/10/19 14:34:45;;;;;;;8.65;7.88;;;23.50;99.90;;;;;;6012873;29;89426;-66
2022/10/19 14:37:47;;;;;;;8.43;7.63;;;23.50;99.90;;;;;;6025303;29;88973;-66
2022/10/19 14:40:49;;;;;;;8.68;7.93;;;23.50;99.90;;;;;;6014414;29;89113;-66
2022/10/19 14:43:51;;;;;;;7.85;7.15;;;23.50;99.90;;;;;;6014515;29;89095;-66
2022/10/19 14:46:53;;;;;;;8.23;7.53;;;23.50;99.90;;;;;;6013143;29;89414;-66
2022/10/19 14:49:57;;;;;;;9.02;8.23;;;23.50;99.90;;;;;;6021605;29;89032;-66
2022/10/19 14:53:04;;;;;;;8.35;7.60;;;23.50;99.90;;;;;;6022181;29;88377;-66
2022/10/19 14:56:10;;;;;;;8.10;7.40;;;23.50;99.90;;;;;;6017109;29;88029;-66
2022/10/19 14:59:22;;;;;;;8.38;7.68;;;23.50;99.90;;;;;;6022767;29;89136;-67
2022/10/19 15:02:27;;;;;;;8.40;7.70;;;23.50;99.90;;;;;;6016246;29;90130;-66
2022/10/19 15:05:33;;;;;;;7.85;7.15;;;23.40;99.90;;;;;;6016416;29;89363;-67
2022/10/19 15:08:38;;;;;;;8.70;7.90;;;23.50;99.90;;;;;;6016916;29;89104;-66
2022/10/19 15:11:48;;;;;;;8.65;7.88;;;23.50;99.90;;;;;;6016500;29;89189;-66
2022/10/19 15:14:50;;;;;;;8.32;7.63;;;23.40;99.90;;;;;;6013267;29;89346;-66
2022/10/19 15:17:55;;;;;;;8.73;7.95;;;23.40;99.90;;;;;;6016145;29;91320;-66
2022/10/19 15:21:04;;;;;;;8.43;7.72;;;23.40;99.90;;;;;;6014996;29;88568;-66
2022/10/19 15:24:08;;;;;;;8.95;8.15;;;23.40;99.90;;;;;;6018007;29;88297;-66
2022/10/19 15:27:18;;;;;;;8.38;7.68;;;23.50;99.90;;;;;;6016354;29;89160;-66
2022/10/19 15:30:27;;;;;;;8.15;7.45;;;23.40;99.90;;;;;;6015794;29;89078;-66
2022/10/19 15:33:29;;;;;;;7.78;7.07;;;23.50;99.90;;;;;;6013673;29;90022;-66
2022/10/19 15:36:33;;;;;;;8.00;7.30;;;23.40;99.90;;;;;;6019540;29;87988;-66
2022/10/19 15:39:36;;;;;;;8.73;7.93;;;23.40;99.90;;;;;;6020004;29;88035;-66
2022/10/19 15:42:42;;;;;;;9.48;8.57;;;23.40;99.90;;;;;;6015553;29;88043;-66
2022/10/19 15:45:45;;;;;;;8.40;7.70;;;23.40;99.90;;;;;;6017036;29;88959;-66
2022/10/19 15:48:48;;;;;;;8.35;7.65;;;23.50;99.90;;;;;;6015696;29;90522;-66
2022/10/19 15:51:51;;;;;;;8.63;7.93;;;23.50;99.90;;;;;;6028162;29;89096;-66
2022/10/19 15:54:55;;;;;;;8.23;7.53;;;23.40;99.90;;;;;;6016252;29;88722;-66
2022/10/19 15:57:59;;;;;;;8.50;7.80;;;23.40;99.90;;;;;;6015829;29;89485;-66
2022/10/19 16:01:01;;;;;;;8.30;7.60;;;23.40;99.90;;;;;;6019124;28;88018;-66
2022/10/19 16:04:03;;;;;;;8.35;7.65;;;23.40;99.90;;;;;;6015537;29;90033;-66
2022/10/19 16:07:08;;;;;;;8.35;7.65;;;23.40;99.90;;;;;;6015564;29;89000;-66